Travis Air Force Base
KSUU : now visible

Airfield :











YOU CAN JOIN US ON...

 
LOGIN :

Register | Disclaimer

   EN    FR    IT 

 









Legend :    VFR   Marginal VFR   IFR   Intensive IFR   Very Intensive IFR
Visi :
Ceiling :
>= 8 km
>= 3000ft
5 to 8 km
1000 to 3000 ft
1500m to 5 km
500 to 1000 ft
800 to 1500m
200 to 500 ft
< 800m
< 200 ft
Symbols :   Thunderstorms  Fog  Heavy snow  Heavy precipitations  Wind > 20 kt






- Airport Elevation : 62 ft


KSUU - Travis Air Force Base

CURRENT METAR :
  • 080358Z AUTO 23013KT 10SM CLR 23/10 A2982 RMK AO2 SLP104 T02310102 $

EXPIRED METARs :
  • 080258Z AUTO 23015KT 10SM CLR 27/09 A2982 RMK AO2 SLP104 T02670086 57012 $
  • 080158Z AUTO 24016KT 10SM CLR 30/07 A2983 RMK AO2 SLP108 T02960069 $

TAF AMD TAF KSUU
Valid from the 08 at 03:00 until the 09 at 09:00 UTC


080412Z 0803/0909 23012G18KT 9999 SKC QNH2978INS
BECMG 0814/0815 23012KT 9999 SKC QNH2975INS
BECMG 0901/0902 23015G25KT 9999 SKC QNH2972INS TX33/0823Z TN14/0811Z
KZOA FIR / North America



MET'MAP, your aeronautical weather chart ! - Copyright ORBIFLY December 2007 - Disclaimer

ORBIFLY MET'MAP TEAM :

Programming & Development : Alexandra Zaïnal
Concept & original design : Baudouin d'Aumeries
Assistance for programming : Marc-Olivier Méhu
Technical & hardware support : Manuel Goepfert

Contact : metmap@orbifly.com




SOURCES & CREDITS :

   NOAA       Earth
Advisory